Time;durP1;ratioP1;P1;durP2;ratioP2;P2;SDS_P1;SDS_P2;PMS_P1;PMS_P2;Temp;Humidity;BMP_temperature;BMP_pressure;BME280_temperature;BME280_humidity;BME280_pressure;Samples;Min_cycle;Max_cycle;Signal;HPM_P1;HPM_P2
2023/08/13 00:01:07;;;;;;;3.05;2.45;;;15.30;99.90;;;;;;4209786;28;20103;-64
2023/08/13 00:03:08;;;;;;;5.07;2.83;;;15.30;99.90;;;;;;4211324;28;20430;-63
2023/08/13 00:05:09;;;;;;;13.93;3.25;;;15.30;99.90;;;;;;4209757;28;20077;-64
2023/08/13 00:07:11;;;;;;;6.00;2.50;;;15.20;99.90;;;;;;4210135;28;20044;-63
2023/08/13 00:09:12;;;;;;;3.47;2.78;;;15.20;99.90;;;;;;4210078;28;20081;-66
2023/08/13 00:11:13;;;;;;;2.65;2.45;;;15.30;99.90;;;;;;4210067;28;20098;-63
2023/08/13 00:13:14;;;;;;;3.92;2.75;;;15.20;99.90;;;;;;4209390;28;20040;-62
2023/08/13 00:15:16;;;;;;;3.75;2.40;;;15.30;99.90;;;;;;4209568;28;20612;-62
2023/08/13 00:17:17;;;;;;;8.10;2.72;;;15.20;99.90;;;;;;4209480;28;20479;-66
2023/08/13 00:19:18;;;;;;;3.78;2.83;;;15.30;99.90;;;;;;4211060;28;20036;-65
2023/08/13 00:21:20;;;;;;;3.22;2.90;;;15.30;99.90;;;;;;4209598;28;20757;-66
2023/08/13 00:23:21;;;;;;;6.10;2.80;;;15.30;99.90;;;;;;4210966;28;20024;-63
2023/08/13 00:25:22;;;;;;;4.10;2.92;;;15.30;99.90;;;;;;4208621;28;20364;-63
2023/08/13 00:27:23;;;;;;;3.58;2.30;;;15.20;99.90;;;;;;4210549;28;20537;-63
2023/08/13 00:29:24;;;;;;;3.72;2.70;;;15.20;99.90;;;;;;4210248;28;20090;-64
2023/08/13 00:31:25;;;;;;;5.07;2.42;;;15.20;99.90;;;;;;4209507;28;20065;-63
2023/08/13 00:33:26;;;;;;;2.70;2.45;;;15.10;99.90;;;;;;4209753;28;20032;-61
2023/08/13 00:35:27;;;;;;;9.50;3.08;;;15.10;99.90;;;;;;4209797;28;20415;-64
2023/08/13 00:37:28;;;;;;;3.85;3.03;;;15.00;99.90;;;;;;4210988;28;20302;-63
2023/08/13 00:39:29;;;;;;;4.18;2.50;;;15.00;99.90;;;;;;4209626;28;20117;-62
2023/08/13 00:41:31;;;;;;;3.47;3.17;;;14.90;99.90;;;;;;4210706;28;20031;-63
2023/08/13 00:43:32;;;;;;;2.90;2.60;;;14.90;99.90;;;;;;4209124;28;20081;-67
2023/08/13 00:45:35;;;;;;;3.85;2.90;;;15.00;99.90;;;;;;4209734;28;20036;-63
2023/08/13 00:47:37;;;;;;;3.72;2.65;;;15.00;99.90;;;;;;4208570;28;20546;-63
2023/08/13 00:49:39;;;;;;;5.43;3.08;;;15.00;99.90;;;;;;4209295;28;20052;-62
2023/08/13 00:51:40;;;;;;;5.80;2.58;;;14.90;99.90;;;;;;4209991;28;20027;-64
2023/08/13 00:53:48;;;;;;;4.53;2.35;;;15.00;99.90;;;;;;4210492;28;20430;-64
2023/08/13 00:55:49;;;;;;;5.22;2.67;;;14.90;99.90;;;;;;4209763;28;20541;-63
2023/08/13 00:57:50;;;;;;;4.30;2.50;;;14.90;99.90;;;;;;4210545;28;20468;-63
2023/08/13 00:59:52;;;;;;;7.10;2.85;;;15.00;99.90;;;;;;4209880;28;20468;-63
2023/08/13 01:01:53;;;;;;;6.32;2.80;;;14.90;99.90;;;;;;4209805;28;20066;-62
2023/08/13 01:03:55;;;;;;;3.10;2.53;;;14.90;99.90;;;;;;4209697;28;20040;-65
2023/08/13 01:06:05;;;;;;;4.18;2.45;;;14.90;99.90;;;;;;4209981;28;20456;-63
2023/08/13 01:08:39;;;;;;;9.75;2.88;;;14.90;99.90;;;;;;4193652;28;20037;-63
2023/08/13 01:10:45;;;;;;;4.65;2.70;;;14.80;99.90;;;;;;4193554;28;20058;-63
2023/08/13 01:12:59;;;;;;;2.95;2.63;;;14.80;99.90;;;;;;4193231;28;20082;-62
2023/08/13 01:15:13;;;;;;;6.55;2.92;;;14.70;99.90;;;;;;4205031;28;20074;-64
2023/08/13 01:17:15;;;;;;;4.43;2.60;;;14.60;99.90;;;;;;4208461;28;20054;-63
2023/08/13 01:19:17;;;;;;;3.15;2.67;;;14.60;99.90;;;;;;4210182;28;20044;-62
2023/08/13 01:21:18;;;;;;;4.13;3.38;;;14.50;99.90;;;;;;4209651;28;20024;-63
2023/08/13 01:23:19;;;;;;;5.43;3.03;;;14.50;99.90;;;;;;4210022;28;20479;-62
2023/08/13 01:25:22;;;;;;;3.75;2.75;;;14.40;99.90;;;;;;4209396;28;20074;-62
2023/08/13 01:27:34;;;;;;;8.57;2.92;;;14.30;99.90;;;;;;4209407;28;20426;-62
2023/08/13 01:29:58;;;;;;;3.40;2.63;;;14.30;99.90;;;;;;4209840;28;20464;-62
2023/08/13 01:32:01;;;;;;;4.80;2.70;;;14.30;99.90;;;;;;4209657;28;20028;-62
2023/08/13 01:34:03;;;;;;;4.03;2.92;;;14.30;99.90;;;;;;4209912;28;20815;-62
2023/08/13 01:36:05;;;;;;;3.70;2.65;;;14.40;99.90;;;;;;4209490;28;20101;-61
2023/08/13 01:38:07;;;;;;;4.93;2.55;;;14.40;99.90;;;;;;4211319;28;20024;-65
2023/08/13 01:40:08;;;;;;;3.58;2.90;;;14.50;99.90;;;;;;4211205;28;20081;-62
2023/08/13 01:42:11;;;;;;;5.38;2.60;;;14.50;99.90;;;;;;4213885;28;20065;-63
2023/08/13 01:44:12;;;;;;;5.38;2.83;;;14.50;99.90;;;;;;4212061;28;20090;-63
2023/08/13 01:46:14;;;;;;;3.88;2.67;;;14.40;99.90;;;;;;4213422;28;20078;-62
2023/08/13 01:48:15;;;;;;;3.17;2.70;;;14.50;99.90;;;;;;4211651;28;20048;-66
2023/08/13 01:50:16;;;;;;;5.60;3.15;;;14.40;99.90;;;;;;4213212;28;20048;-62
2023/08/13 01:52:17;;;;;;;3.25;2.50;;;14.50;99.90;;;;;;4211210;28;20074;-62
2023/08/13 01:54:18;;;;;;;6.85;3.30;;;14.50;99.90;;;;;;4213201;28;20044;-63
2023/08/13 01:56:19;;;;;;;6.20;2.95;;;14.50;99.90;;;;;;4211602;28;20032;-64
2023/08/13 01:58:20;;;;;;;3.10;2.78;;;14.50;99.90;;;;;;4212435;28;20101;-62
2023/08/13 02:00:22;;;;;;;4.03;2.17;;;14.50;99.90;;;;;;4211947;28;20028;-62
2023/08/13 02:02:23;;;;;;;3.60;2.78;;;14.50;99.90;;;;;;4211078;28;20430;-63
2023/08/13 02:04:24;;;;;;;3.63;2.47;;;14.50;99.90;;;;;;4211864;28;20044;-64
2023/08/13 02:06:25;;;;;;;4.80;2.70;;;14.40;99.90;;;;;;4211972;28;20101;-62
2023/08/13 02:08:26;;;;;;;3.45;2.53;;;14.40;99.90;;;;;;4212056;28;20053;-62
2023/08/13 02:10:27;;;;;;;5.72;2.30;;;14.40;99.90;;;;;;4191529;28;20086;-64
2023/08/13 02:12:29;;;;;;;2.95;2.63;;;14.30;99.90;;;;;;4212211;28;20040;-62
2023/08/13 02:14:30;;;;;;;3.42;2.75;;;14.30;99.90;;;;;;4210971;28;20088;-64
2023/08/13 02:16:31;;;;;;;5.30;2.95;;;14.30;99.90;;;;;;4212831;28;20411;-62
2023/08/13 02:18:32;;;;;;;3.40;3.10;;;14.20;99.90;;;;;;4211025;28;20052;-63
2023/08/13 02:20:33;;;;;;;3.80;3.25;;;14.10;99.90;;;;;;4212866;28;20085;-64
2023/08/13 02:22:34;;;;;;;4.97;2.95;;;14.00;99.90;;;;;;4211711;28;20028;-63
2023/08/13 02:24:35;;;;;;;3.35;2.88;;;13.90;99.90;;;;;;4193934;28;20503;-65
2023/08/13 02:26:36;;;;;;;5.00;2.80;;;13.90;99.90;;;;;;4194913;28;20028;-62
2023/08/13 02:28:38;;;;;;;5.13;3.00;;;13.90;99.90;;;;;;4199426;28;20036;-63
2023/08/13 02:30:39;;;;;;;4.93;3.60;;;13.80;99.90;;;;;;4211203;28;20537;-63
2023/08/13 02:32:40;;;;;;;8.40;3.33;;;13.80;99.90;;;;;;4212551;28;20093;-64
2023/08/13 02:34:45;;;;;;;5.80;3.00;;;13.80;99.90;;;;;;4211885;28;20077;-63
2023/08/13 02:36:46;;;;;;;4.27;3.03;;;13.70;99.90;;;;;;4211868;28;20032;-64
2023/08/13 02:38:47;;;;;;;3.97;2.90;;;13.70;99.90;;;;;;4211774;28;20073;-62
2023/08/13 02:40:48;;;;;;;4.93;3.13;;;13.60;99.90;;;;;;4210289;28;20476;-63
2023/08/13 02:42:49;;;;;;;6.07;3.00;;;13.60;99.90;;;;;;4212284;28;20051;-62
2023/08/13 02:44:50;;;;;;;5.20;3.00;;;13.60;99.90;;;;;;4211220;28;20109;-62
2023/08/13 02:46:52;;;;;;;5.83;3.30;;;13.60;99.90;;;;;;4212327;28;20036;-62
2023/08/13 02:48:54;;;;;;;8.55;2.85;;;13.60;99.90;;;;;;4209863;28;20144;-62
2023/08/13 02:50:55;;;;;;;5.07;3.53;;;13.60;99.90;;;;;;4211305;28;20044;-63
2023/08/13 02:52:56;;;;;;;4.60;3.33;;;13.60;99.90;;;;;;4211119;28;20036;-63
2023/08/13 02:54:57;;;;;;;6.70;3.20;;;13.60;99.90;;;;;;4211715;28;20426;-62
2023/08/13 02:56:59;;;;;;;8.00;3.13;;;13.60;99.90;;;;;;4211214;28;20036;-62
2023/08/13 02:59:00;;;;;;;5.03;3.40;;;13.60;99.90;;;;;;4211128;28;20094;-66
2023/08/13 03:01:02;;;;;;;8.33;3.00;;;13.60;99.90;;;;;;4210402;28;20533;-62
2023/08/13 03:03:04;;;;;;;4.57;3.10;;;13.60;99.90;;;;;;4211451;28;20085;-65
2023/08/13 03:05:05;;;;;;;4.37;3.13;;;13.50;99.90;;;;;;4209766;28;20415;-63
2023/08/13 03:07:06;;;;;;;6.20;3.20;;;13.40;99.90;;;;;;4210873;28;20044;-63
2023/08/13 03:09:09;;;;;;;4.07;3.30;;;13.40;99.90;;;;;;4211327;28;20036;-62
2023/08/13 03:11:10;;;;;;;7.43;3.60;;;13.40;99.90;;;;;;4210797;28;20081;-64
2023/08/13 03:13:12;;;;;;;6.87;3.00;;;13.40;99.90;;;;;;4210625;28;20083;-63
2023/08/13 03:15:13;;;;;;;5.87;3.87;;;13.30;99.90;;;;;;4211123;28;20459;-63
2023/08/13 03:17:14;;;;;;;14.17;3.70;;;13.30;99.90;;;;;;4210713;28;20113;-66
2023/08/13 03:19:15;;;;;;;9.10;3.60;;;13.20;99.90;;;;;;4210454;28;20036;-63
2023/08/13 03:21:16;;;;;;;8.57;2.90;;;13.20;99.90;;;;;;4211398;28;20109;-62
2023/08/13 03:23:17;;;;;;;6.07;3.17;;;13.20;99.90;;;;;;4210929;28;20118;-62
2023/08/13 03:25:18;;;;;;;4.63;3.17;;;13.20;99.90;;;;;;4192549;28;20496;-63
2023/08/13 03:27:19;;;;;;;5.30;3.50;;;13.20;99.90;;;;;;4209773;28;20039;-61
2023/08/13 03:29:20;;;;;;;5.33;3.07;;;13.20;99.90;;;;;;4211618;28;20035;-65
2023/08/13 03:31:21;;;;;;;6.43;3.23;;;13.20;99.90;;;;;;4209673;28;20048;-63
2023/08/13 03:33:23;;;;;;;4.50;3.17;;;13.30;99.90;;;;;;4211227;28;20040;-63
2023/08/13 03:35:24;;;;;;;7.23;3.00;;;13.40;99.90;;;;;;4210722;28;20480;-63
2023/08/13 03:37:25;;;;;;;3.77;2.93;;;13.60;99.90;;;;;;4210994;28;20048;-64
2023/08/13 03:39:26;;;;;;;3.53;3.13;;;13.80;99.90;;;;;;4209898;28;20039;-64
2023/08/13 03:41:27;;;;;;;4.93;2.97;;;14.10;99.90;;;;;;4209387;28;20089;-65
2023/08/13 03:43:28;;;;;;;4.60;3.80;;;14.30;99.90;;;;;;4211140;28;20105;-68
2023/08/13 03:45:29;;;;;;;9.27;2.83;;;14.40;99.90;;;;;;4210608;28;20039;-64
2023/08/13 03:47:30;;;;;;;4.37;2.67;;;14.80;99.90;;;;;;4211142;28;20044;-64
2023/08/13 03:49:32;;;;;;;4.73;3.47;;;15.10;99.90;;;;;;4209095;28;20101;-63
2023/08/13 03:51:33;;;;;;;5.82;3.80;;;15.50;99.90;;;;;;4210461;28;20097;-66
2023/08/13 03:53:34;;;;;;;6.72;4.40;;;15.90;99.90;;;;;;4209804;28;20438;-64
2023/08/13 03:55:37;;;;;;;6.18;4.53;;;16.20;99.90;;;;;;4211237;28;20073;-64
2023/08/13 03:57:39;;;;;;;7.18;4.30;;;16.40;99.90;;;;;;4190982;28;20093;-64
2023/08/13 03:59:40;;;;;;;6.10;3.83;;;16.60;99.90;;;;;;4210892;28;20081;-64
2023/08/13 04:01:41;;;;;;;8.48;3.70;;;16.60;99.90;;;;;;4209538;28;20036;-63
2023/08/13 04:03:42;;;;;;;7.15;3.58;;;16.70;99.90;;;;;;4211063;28;20376;-67
2023/08/13 04:05:43;;;;;;;4.57;3.15;;;16.80;99.90;;;;;;4210385;28;20039;-64
2023/08/13 04:07:44;;;;;;;3.63;2.92;;;17.20;99.90;;;;;;4210619;28;20048;-63
2023/08/13 04:09:45;;;;;;;5.60;2.92;;;17.60;99.90;;;;;;4209411;28;20028;-63
2023/08/13 04:11:46;;;;;;;5.45;3.10;;;17.90;99.90;;;;;;4210632;28;20078;-63
2023/08/13 04:13:47;;;;;;;4.28;3.17;;;18.40;99.90;;;;;;4210122;28;20480;-62
2023/08/13 04:15:48;;;;;;;6.93;3.47;;;19.00;99.90;;;;;;4210049;28;20040;-62
2023/08/13 04:17:51;;;;;;;5.80;3.20;;;19.40;99.90;;;;;;4209927;28;20095;-62
2023/08/13 04:19:52;;;;;;;5.65;3.83;;;19.80;99.90;;;;;;4202053;28;20040;-63
2023/08/13 04:21:53;;;;;;;7.35;3.03;;;19.90;99.90;;;;;;4211046;28;20085;-63
2023/08/13 04:23:58;;;;;;;8.57;3.47;;;19.50;99.90;;;;;;4209774;28;20077;-63
2023/08/13 04:25:59;;;;;;;6.43;4.00;;;19.40;99.90;;;;;;4210674;28;20032;-64
2023/08/13 04:28:01;;;;;;;8.00;3.63;;;19.20;99.90;;;;;;4208892;28;21331;-63
2023/08/13 04:30:03;;;;;;;10.55;3.60;;;19.10;99.90;;;;;;4210820;28;20484;-63
2023/08/13 04:32:04;;;;;;;4.53;2.83;;;19.00;99.90;;;;;;4209734;28;20043;-62
2023/08/13 04:34:05;;;;;;;8.15;3.17;;;18.60;99.90;;;;;;4209903;28;20119;-62
2023/08/13 04:36:06;;;;;;;5.07;3.33;;;18.80;99.90;;;;;;4209367;28;20032;-64
2023/08/13 04:38:08;;;;;;;5.25;3.55;;;18.90;99.90;;;;;;4210367;28;20399;-62
2023/08/13 04:40:10;;;;;;;5.45;3.15;;;18.70;99.90;;;;;;4208932;28;20125;-63
2023/08/13 04:42:11;;;;;;;4.72;3.08;;;19.20;99.90;;;;;;4210469;28;20036;-63
2023/08/13 04:44:12;;;;;;;6.30;2.95;;;19.50;99.90;;;;;;4209964;28;20605;-63
2023/08/13 04:46:13;;;;;;;4.75;3.45;;;19.30;99.90;;;;;;4210292;28;20117;-62
2023/08/13 04:48:38;;;;;;;6.35;4.30;;;19.00;99.90;;;;;;4209507;28;20090;-63
2023/08/13 04:50:40;;;;;;;10.48;4.25;;;18.80;99.90;;;;;;4209031;28;20109;-63
2023/08/13 04:52:41;;;;;;;5.97;3.67;;;18.70;99.90;;;;;;4208102;28;20546;-63
2023/08/13 04:54:42;;;;;;;10.07;4.22;;;18.80;99.90;;;;;;4210016;28;20448;-63
2023/08/13 04:56:43;;;;;;;6.47;3.60;;;19.30;99.90;;;;;;4209199;28;20047;-62
2023/08/13 04:58:44;;;;;;;7.63;3.83;;;20.00;99.90;;;;;;4208412;28;20176;-64
2023/08/13 05:00:46;;;;;;;13.02;5.35;;;20.20;99.90;;;;;;4209979;28;20061;-63
2023/08/13 05:02:47;;;;;;;5.88;4.28;;;20.60;99.90;;;;;;4209262;28;20036;-64
2023/08/13 05:04:48;;;;;;;8.73;4.55;;;20.50;99.90;;;;;;4209407;28;20051;-64
2023/08/13 05:06:49;;;;;;;8.68;4.78;;;20.70;99.90;;;;;;4209529;28;20568;-63
2023/08/13 05:08:50;;;;;;;7.72;3.40;;;20.80;99.90;;;;;;4192077;28;20516;-63
2023/08/13 05:10:51;;;;;;;5.38;3.75;;;20.70;99.90;;;;;;4208597;28;20089;-64
2023/08/13 05:12:52;;;;;;;6.18;4.05;;;20.60;99.90;;;;;;4210871;28;20044;-64
2023/08/13 05:14:53;;;;;;;12.25;6.28;;;20.70;99.90;;;;;;4193790;28;20113;-62
2023/08/13 05:16:55;;;;;;;11.20;5.53;;;20.70;99.90;;;;;;4213923;28;20028;-63
2023/08/13 05:18:56;;;;;;;11.82;6.32;;;20.50;99.90;;;;;;4211616;28;20442;-63
2023/08/13 05:20:57;;;;;;;6.55;4.10;;;20.80;99.90;;;;;;4212365;28;20056;-64
2023/08/13 05:22:58;;;;;;;4.88;3.78;;;20.80;99.90;;;;;;4212904;28;20024;-62
2023/08/13 05:24:59;;;;;;;7.85;3.90;;;21.10;99.90;;;;;;4212122;28;20105;-63
2023/08/13 05:27:01;;;;;;;13.70;5.05;;;21.00;99.90;;;;;;4212341;28;20402;-63
2023/08/13 05:29:03;;;;;;;11.02;4.32;;;21.30;99.90;;;;;;4212058;28;20040;-64
2023/08/13 05:31:04;;;;;;;9.52;4.63;;;21.60;99.90;;;;;;4210360;28;20120;-63
2023/08/13 05:33:05;;;;;;;8.38;4.50;;;21.60;99.90;;;;;;4211523;28;20434;-64
2023/08/13 05:35:07;;;;;;;5.45;4.10;;;21.60;99.90;;;;;;4212410;28;20448;-62
2023/08/13 05:37:08;;;;;;;5.75;4.60;;;21.40;99.90;;;;;;4212225;28;20116;-63
2023/08/13 05:39:10;;;;;;;8.13;4.47;;;21.50;99.90;;;;;;4212077;28;20040;-63
2023/08/13 05:41:12;;;;;;;9.07;4.00;;;21.50;99.90;;;;;;4211429;28;20496;-62
2023/08/13 05:43:13;;;;;;;10.40;4.40;;;21.60;99.90;;;;;;4213213;28;20020;-63
2023/08/13 05:45:15;;;;;;;8.00;3.65;;;21.60;99.90;;;;;;4210386;28;20136;-62
2023/08/13 05:47:16;;;;;;;7.88;3.90;;;21.50;99.90;;;;;;4213681;28;20032;-62
2023/08/13 05:49:17;;;;;;;7.82;3.33;;;21.70;99.90;;;;;;4212246;28;20375;-63
2023/08/13 05:51:18;;;;;;;8.75;3.97;;;21.60;99.90;;;;;;4212193;28;20048;-62
2023/08/13 05:53:19;;;;;;;6.60;3.25;;;22.10;99.70;;;;;;4211278;28;20028;-63
2023/08/13 05:55:20;;;;;;;4.18;3.13;;;22.00;99.30;;;;;;4212201;28;20036;-63
2023/08/13 05:57:22;;;;;;;6.80;3.38;;;22.10;99.20;;;;;;4211330;28;20070;-63
2023/08/13 05:59:23;;;;;;;6.45;4.28;;;22.40;99.10;;;;;;4211441;28;20077;-64
2023/08/13 06:01:26;;;;;;;4.65;3.55;;;22.40;98.60;;;;;;4212941;28;20024;-64
2023/08/13 06:03:27;;;;;;;5.13;2.97;;;22.20;98.90;;;;;;4210710;28;20070;-62
2023/08/13 06:05:29;;;;;;;4.13;2.70;;;22.00;98.60;;;;;;4213139;28;20074;-64
2023/08/13 06:07:30;;;;;;;5.75;3.33;;;22.10;98.50;;;;;;4211929;28;20085;-62
2023/08/13 06:09:31;;;;;;;4.28;2.92;;;22.10;98.40;;;;;;4212210;28;20094;-63
2023/08/13 06:11:32;;;;;;;5.15;3.15;;;22.10;98.30;;;;;;4210319;28;20093;-63
2023/08/13 06:13:38;;;;;;;4.10;3.10;;;22.10;98.30;;;;;;4212663;28;20089;-63
2023/08/13 06:15:39;;;;;;;7.57;2.63;;;22.20;98.30;;;;;;4210105;28;20089;-62
2023/08/13 06:17:46;;;;;;;3.72;2.03;;;22.30;98.10;;;;;;4211998;28;20044;-62
2023/08/13 06:19:47;;;;;;;3.40;2.63;;;22.50;97.80;;;;;;4210900;28;20044;-62
2023/08/13 06:21:48;;;;;;;3.33;2.90;;;22.70;97.50;;;;;;4212078;28;20066;-63
2023/08/13 06:23:49;;;;;;;4.13;2.72;;;22.70;97.30;;;;;;4211279;28;20074;-63
2023/08/13 06:25:51;;;;;;;4.82;2.75;;;22.80;97.30;;;;;;4212059;28;20508;-63
2023/08/13 06:27:52;;;;;;;4.65;2.80;;;22.80;97.10;;;;;;4211632;28;20077;-63
2023/08/13 06:29:53;;;;;;;4.18;2.65;;;22.50;97.10;;;;;;4212302;28;20032;-62
2023/08/13 06:31:54;;;;;;;5.43;2.88;;;22.50;97.20;;;;;;4211597;28;20032;-62
2023/08/13 06:33:56;;;;;;;4.00;2.63;;;22.30;97.20;;;;;;4211084;28;20035;-62
2023/08/13 06:35:57;;;;;;;2.30;2.08;;;22.10;97.40;;;;;;4212746;28;20040;-61
2023/08/13 06:37:58;;;;;;;6.28;3.10;;;22.20;97.70;;;;;;4210989;28;20082;-63
2023/08/13 06:39:59;;;;;;;2.92;2.45;;;22.30;97.30;;;;;;4211614;28;20496;-65
2023/08/13 06:42:00;;;;;;;3.20;2.05;;;22.20;97.20;;;;;;4210831;28;20080;-63
2023/08/13 06:44:01;;;;;;;4.78;2.60;;;22.30;97.20;;;;;;4212735;28;20032;-64
2023/08/13 06:46:03;;;;;;;3.15;2.22;;;22.10;97.40;;;;;;4211171;28;20374;-64
2023/08/13 06:48:04;;;;;;;3.55;2.50;;;22.40;97.40;;;;;;4211415;28;20450;-63
2023/08/13 06:50:06;;;;;;;3.38;3.03;;;22.50;97.20;;;;;;4210375;28;21066;-63
2023/08/13 06:52:07;;;;;;;4.28;2.50;;;22.40;97.40;;;;;;4212488;28;20020;-62
2023/08/13 06:54:08;;;;;;;3.15;2.58;;;22.90;97.20;;;;;;4210646;28;20423;-63
2023/08/13 06:56:09;;;;;;;2.58;2.38;;;23.20;96.90;;;;;;4211733;28;20078;-62
2023/08/13 06:58:10;;;;;;;6.60;2.67;;;23.30;96.80;;;;;;4210438;28;20044;-63
2023/08/13 07:00:12;;;;;;;2.65;2.28;;;23.50;96.70;;;;;;4211873;28;20081;-63
2023/08/13 07:02:13;;;;;;;3.05;2.67;;;23.50;96.20;;;;;;4210186;28;20023;-63
2023/08/13 07:04:14;;;;;;;4.40;2.75;;;23.40;96.20;;;;;;4211348;28;20020;-62
2023/08/13 07:06:15;;;;;;;4.00;2.55;;;23.70;96.10;;;;;;4211956;28;20089;-63
2023/08/13 07:08:17;;;;;;;3.28;2.53;;;23.80;95.90;;;;;;4210499;28;20036;-65
2023/08/13 07:10:18;;;;;;;3.10;2.42;;;23.70;95.90;;;;;;4210859;28;20130;-63
2023/08/13 07:12:19;;;;;;;5.60;2.97;;;23.80;95.80;;;;;;4211088;28;20032;-63
2023/08/13 07:14:20;;;;;;;3.58;2.78;;;23.90;95.80;;;;;;4211727;28;20040;-61
2023/08/13 07:16:21;;;;;;;4.78;2.55;;;24.00;95.60;;;;;;4210543;28;20040;-63
2023/08/13 07:18:22;;;;;;;4.68;2.47;;;24.50;95.40;;;;;;4211950;28;20144;-63
2023/08/13 07:20:24;;;;;;;2.92;2.60;;;24.60;94.90;;;;;;4209811;28;20028;-63
2023/08/13 07:22:26;;;;;;;4.38;2.78;;;24.20;95.00;;;;;;4209982;28;20077;-64
2023/08/13 07:24:27;;;;;;;3.88;2.25;;;24.00;95.10;;;;;;4210543;28;20041;-63
2023/08/13 07:26:29;;;;;;;2.50;2.13;;;23.90;95.20;;;;;;4210729;28;20047;-62
2023/08/13 07:28:34;;;;;;;3.30;2.50;;;24.40;95.00;;;;;;4209423;28;20048;-63
2023/08/13 07:30:35;;;;;;;2.25;2.03;;;24.70;94.50;;;;;;4211453;28;21887;-63
2023/08/13 07:32:38;;;;;;;2.17;1.98;;;24.60;94.30;;;;;;4209616;28;20474;-63
2023/08/13 07:34:39;;;;;;;4.57;2.55;;;24.80;94.00;;;;;;4211050;28;20090;-61
2023/08/13 07:36:41;;;;;;;3.58;2.15;;;24.30;94.00;;;;;;4209488;28;20077;-62
2023/08/13 07:38:42;;;;;;;4.13;2.42;;;24.10;94.30;;;;;;4211161;28;20426;-62
2023/08/13 07:40:43;;;;;;;3.63;2.22;;;24.20;94.20;;;;;;4211205;28;20024;-62
2023/08/13 07:42:44;;;;;;;4.35;2.05;;;24.30;94.00;;;;;;4210279;28;20058;-62
2023/08/13 07:44:47;;;;;;;2.25;2.05;;;24.60;93.80;;;;;;4210040;28;20104;-62
2023/08/13 07:46:50;;;;;;;5.57;1.95;;;24.90;93.40;;;;;;4209780;28;20101;-62
2023/08/13 07:48:51;;;;;;;4.45;1.85;;;24.70;93.00;;;;;;4210359;28;20044;-62
2023/08/13 07:50:54;;;;;;;5.18;2.17;;;24.60;92.90;;;;;;4210011;28;20047;-61
2023/08/13 07:52:56;;;;;;;4.30;2.00;;;24.90;92.90;;;;;;4211367;28;20473;-62
2023/08/13 07:54:57;;;;;;;5.25;2.20;;;24.90;92.60;;;;;;4209996;28;20036;-60
2023/08/13 07:56:58;;;;;;;3.28;2.28;;;24.60;92.50;;;;;;4210701;28;20403;-61
2023/08/13 07:58:59;;;;;;;3.55;2.17;;;24.50;92.50;;;;;;4210200;28;20021;-63
2023/08/13 08:01:00;;;;;;;4.95;1.58;;;24.60;92.50;;;;;;4211314;28;20031;-62
2023/08/13 08:03:03;;;;;;;4.07;1.88;;;24.30;92.60;;;;;;4208830;28;20113;-61
2023/08/13 08:05:06;;;;;;;2.45;2.05;;;24.60;92.40;;;;;;4210358;28;20056;-60
2023/08/13 08:07:08;;;;;;;2.97;2.03;;;24.70;92.30;;;;;;4210308;28;20089;-60
2023/08/13 08:09:10;;;;;;;2.45;1.85;;;24.80;92.00;;;;;;4210049;28;20073;-60
2023/08/13 08:11:11;;;;;;;2.95;1.88;;;24.90;92.00;;;;;;4209168;28;20105;-61
2023/08/13 08:13:12;;;;;;;4.65;2.92;;;25.00;91.70;;;;;;4209574;28;20036;-60
2023/08/13 08:15:13;;;;;;;4.93;2.20;;;25.00;91.60;;;;;;4210457;28;20070;-60
2023/08/13 08:17:14;;;;;;;2.55;1.92;;;24.90;91.30;;;;;;4210328;28;20453;-60
2023/08/13 08:19:15;;;;;;;3.05;2.00;;;24.90;91.40;;;;;;4192702;28;20086;-61
2023/08/13 08:21:16;;;;;;;3.10;2.03;;;25.00;91.30;;;;;;4192635;28;20218;-62
2023/08/13 08:23:18;;;;;;;5.30;1.75;;;25.10;91.40;;;;;;4209279;28;20032;-60
2023/08/13 08:25:19;;;;;;;5.20;2.50;;;25.40;91.30;;;;;;4192031;28;20105;-61
2023/08/13 08:27:20;;;;;;;3.60;1.77;;;25.50;91.00;;;;;;4193993;28;20077;-62
2023/08/13 08:29:22;;;;;;;2.50;1.50;;;25.40;90.80;;;;;;4206479;28;20032;-60
2023/08/13 08:31:23;;;;;;;6.65;1.70;;;25.10;90.90;;;;;;4210665;28;20040;-61
2023/08/13 08:33:26;;;;;;;3.92;1.98;;;25.00;91.20;;;;;;4191124;28;20110;-60
2023/08/13 08:35:27;;;;;;;3.63;2.25;;;25.20;91.00;;;;;;4210011;28;20044;-60
2023/08/13 08:37:28;;;;;;;4.45;1.52;;;25.30;90.80;;;;;;4209849;28;20032;-61
2023/08/13 08:39:29;;;;;;;1.92;1.63;;;25.40;90.80;;;;;;4210316;28;20074;-65
2023/08/13 08:41:35;;;;;;;3.88;1.70;;;25.50;90.50;;;;;;4207422;28;20089;-62
2023/08/13 08:43:38;;;;;;;2.40;2.00;;;25.50;90.10;;;;;;4210728;28;20426;-63
2023/08/13 08:45:40;;;;;;;2.00;1.63;;;25.40;90.10;;;;;;4209198;28;20403;-63
2023/08/13 08:47:43;;;;;;;4.30;1.60;;;25.40;90.20;;;;;;4214059;28;20040;-59
2023/08/13 08:49:46;;;;;;;3.35;1.45;;;25.70;90.00;;;;;;4214681;28;20044;-62
2023/08/13 08:51:48;;;;;;;2.22;2.03;;;25.70;89.90;;;;;;4214993;28;20036;-61
2023/08/13 08:53:50;;;;;;;3.53;1.48;;;25.80;89.80;;;;;;4201862;28;20070;-62
2023/08/13 08:55:52;;;;;;;2.00;1.40;;;25.70;89.60;;;;;;4214303;28;20378;-62
2023/08/13 08:57:54;;;;;;;1.90;1.50;;;25.70;89.00;;;;;;4198314;28;20451;-64
2023/08/13 08:59:55;;;;;;;3.33;1.98;;;25.60;88.90;;;;;;4215306;28;20012;-62
2023/08/13 09:01:56;;;;;;;3.15;1.45;;;25.80;89.20;;;;;;4215852;28;20161;-66
2023/08/13 09:03:57;;;;;;;2.63;1.77;;;26.00;89.00;;;;;;4216473;28;20069;-61
2023/08/13 09:05:58;;;;;;;2.33;1.83;;;26.00;88.80;;;;;;4216227;28;20549;-62
2023/08/13 09:07:59;;;;;;;4.22;2.50;;;25.70;88.90;;;;;;4215268;28;20032;-62
2023/08/13 09:10:04;;;;;;;1.90;1.75;;;25.70;89.50;;;;;;4215884;28;20040;-62
2023/08/13 09:12:05;;;;;;;2.50;1.58;;;25.60;89.40;;;;;;4213938;28;20085;-62
2023/08/13 09:14:06;;;;;;;4.63;1.95;;;25.60;89.50;;;;;;4197944;28;20171;-62
2023/08/13 09:16:08;;;;;;;2.50;1.98;;;25.70;89.20;;;;;;4210222;28;20036;-61
2023/08/13 09:18:10;;;;;;;10.50;1.90;;;25.60;89.20;;;;;;4214739;28;20047;-63
2023/08/13 09:20:20;;;;;;;4.55;1.83;;;25.60;89.20;;;;;;4213956;28;20089;-63
2023/08/13 09:22:21;;;;;;;3.80;1.65;;;25.70;88.90;;;;;;4213802;28;20049;-61
2023/08/13 09:24:38;;;;;;;3.83;1.92;;;25.60;89.40;;;;;;4197397;28;20032;-62
2023/08/13 09:26:39;;;;;;;2.05;1.55;;;25.70;89.40;;;;;;4199932;28;20052;-60
2023/08/13 09:28:43;;;;;;;1.83;1.70;;;25.80;89.30;;;;;;4214514;28;20036;-60
2023/08/13 09:30:45;;;;;;;5.05;1.90;;;26.00;88.90;;;;;;4214904;28;20089;-61
2023/08/13 09:32:47;;;;;;;3.30;1.90;;;26.00;88.30;;;;;;4215057;28;20036;-63
2023/08/13 09:34:52;;;;;;;2.35;1.95;;;26.20;88.20;;;;;;4214953;28;20406;-61
2023/08/13 09:36:54;;;;;;;2.78;1.77;;;26.10;88.10;;;;;;4215435;28;20036;-64
2023/08/13 09:38:56;;;;;;;7.60;4.55;;;26.00;88.30;;;;;;4214360;28;20058;-61
2023/08/13 09:40:58;;;;;;;2.50;2.00;;;25.80;88.50;;;;;;4215580;28;20024;-61
2023/08/13 09:43:06;;;;;;;12.05;4.22;;;25.70;88.70;;;;;;4214693;28;20025;-62
2023/08/13 09:45:10;;;;;;;2.72;1.92;;;25.80;89.00;;;;;;4215228;28;20036;-61
2023/08/13 09:47:17;;;;;;;74.35;25.48;;;26.10;89.10;;;;;;4214890;28;20036;-61
2023/08/13 09:49:20;;;;;;;5.03;1.98;;;26.40;88.90;;;;;;4197364;28;20040;-59
2023/08/13 09:51:30;;;;;;;3.15;1.88;;;26.60;88.70;;;;;;4214017;28;20052;-57
2023/08/13 09:53:32;;;;;;;2.53;1.80;;;26.80;88.70;;;;;;4214602;28;20036;-56
2023/08/13 09:55:40;;;;;;;2.13;1.85;;;26.80;87.90;;;;;;4214683;28;20065;-59
2023/08/13 09:57:43;;;;;;;3.65;1.70;;;26.50;87.70;;;;;;4215141;28;20036;-60
2023/08/13 09:59:45;;;;;;;2.33;1.52;;;26.50;88.00;;;;;;4210531;28;20035;-61
2023/08/13 10:01:46;;;;;;;2.85;1.73;;;26.50;88.00;;;;;;4213217;28;20040;-60
2023/08/13 10:03:49;;;;;;;5.43;3.00;;;26.70;87.80;;;;;;4210242;28;20045;-61
2023/08/13 10:05:51;;;;;;;2.60;1.90;;;26.50;87.60;;;;;;4213200;28;20172;-59
2023/08/13 10:07:53;;;;;;;2.97;1.80;;;26.50;88.30;;;;;;4212330;28;20513;-59
2023/08/13 10:09:54;;;;;;;2.95;1.75;;;26.40;88.60;;;;;;4212739;28;20421;-58
2023/08/13 10:11:56;;;;;;;1.60;1.50;;;26.20;88.90;;;;;;4212131;28;20020;-62
2023/08/13 10:13:57;;;;;;;2.33;1.90;;;26.10;89.20;;;;;;4211561;28;20436;-62
2023/08/13 10:15:58;;;;;;;1.52;1.42;;;26.00;89.40;;;;;;4211793;28;20446;-62
2023/08/13 10:18:00;;;;;;;2.00;1.90;;;26.00;89.50;;;;;;4212284;28;20081;-75
2023/08/13 10:20:03;;;;;;;4.63;1.73;;;26.00;89.40;;;;;;4211302;28;20381;-68
2023/08/13 10:22:04;;;;;;;7.03;2.08;;;26.00;89.20;;;;;;4211112;28;20032;-62
2023/08/13 10:24:10;;;;;;;4.10;2.05;;;26.00;88.70;;;;;;4210588;28;20039;-62
2023/08/13 10:26:13;;;;;;;2.35;1.85;;;26.00;88.00;;;;;;4200040;28;20052;-65
2023/08/13 10:28:31;;;;;;;2.00;1.75;;;25.90;88.00;;;;;;4212567;28;20141;-65
2023/08/13 10:30:32;;;;;;;3.00;1.77;;;25.90;87.80;;;;;;4211427;28;20082;-64
2023/08/13 10:32:55;;;;;;;2.67;1.42;;;25.90;87.90;;;;;;4212637;28;20028;-66
2023/08/13 10:34:57;;;;;;;1.58;1.45;;;25.90;87.70;;;;;;4211008;28;20387;-68